1987 CARY (1987219N08155)


On this page: IBTrACS data - Map and Plots - Positions - Intensities - Original source data

Summary

Start Aug 7
End Aug 24
Basins NI
WP
LMI 85 kt
Sources jtwc_wp
tokyo
cma
hko
td9636
In WMO? Yes
Previous storm 1987 BETTY (WP)
Previous in basin 1987 BETTY (WP)
Concurrent storms 1987 HILARY (EP)
1987 IRWIN (EP)
1987 BETTY (WP)
1987 CARY (WP)
1987 ARLENE (NA)
1987 MISSING (NA)
1987 TD0810 (WP)
1987 MISSING (NA)
1987 JOVA (EP)
1987 BRET (NA)
1987 MISSING (WP)
1987 DINAH (WP)
1987 ED1 (WP)
Next in basin 1987 TD0810 (WP)
Next storm 1987 ARLENE (NA)

top of page IBTrACS Data: File Access

top of page HURSAT Data: File Access

Image of storm

top of page Plots:

Map of storm track will not appear if FTP is down
Time series of cyclone Maximum Sustained Wind will not appear if FTP is down
Time series of cyclone Minimum Central Pressure will not appear if FTP is down

top of page Track Data:Position

jtwc_wp tokyo cma hko td9636
Date Lat Lon Lat Lon Lat Lon Lat Lon Lat Lon
1987-08-07 00:00:00 7.6 154.9 7.6 154.9
1987-08-07 06:00:00 7.8 154.1 7.8 154.0
1987-08-07 12:00:00 8.0 153.2 8.0 153.2
1987-08-07 18:00:00 8.2 152.4 8.1 152.4
1987-08-08 00:00:00 8.2 151.7 8.2 151.7
1987-08-08 06:00:00 8.1 150.9 8.2 150.9
1987-08-08 12:00:00 8.1 150.2 8.1 150.2
1987-08-08 18:00:00 8.0 149.5 8.0 149.5
1987-08-09 00:00:00 8.0 148.7 8.0 148.7
1987-08-09 06:00:00 8.1 147.9 8.1 147.9
1987-08-09 12:00:00 8.2 147.1 8.2 147.1
1987-08-09 18:00:00 8.3 146.3 8.3 146.3
1987-08-10 00:00:00 8.4 145.4 8.4 145.4
1987-08-10 06:00:00 8.5 144.5 8.5 144.5
1987-08-10 12:00:00 8.6 143.6 8.6 143.6
1987-08-10 18:00:00 8.7 142.5 8.7 142.5
1987-08-11 00:00:00 8.8 141.4 8.8 141.4
1987-08-11 06:00:00 9.0 140.3 9.1 140.3
1987-08-11 12:00:00 9.5 139.2 9.5 139.2
1987-08-11 18:00:00 10.0 138.2 10.0 138.1
1987-08-12 00:00:00 10.6 137.0 10.6 137.0
1987-08-12 06:00:00 11.3 135.9 12.0 137.5 11.2 136.0
1987-08-12 12:00:00 11.9 135.2 12.5 136.0 11.9 135.2
1987-08-12 18:00:00 12.8 134.7 13.2 135.1 13.5 135.3 11.9 135.3 12.8 134.6
1987-08-13 00:00:00 13.6 134.0 13.9 134.2 13.7 134.3 13.6 134.4 13.6 134.0
jtwc_wp tokyo cma hko td9636
1987-08-13 06:00:00 14.3 133.1 14.4 133.4 14.3 132.8 14.4 133.0 14.3 133.1
1987-08-13 12:00:00 14.9 132.2 14.9 132.3 14.9 132.1 14.9 132.0 14.9 132.2
1987-08-13 18:00:00 15.3 131.3 15.4 131.0 15.3 131.3 15.4 131.2 15.3 131.3
1987-08-14 00:00:00 15.5 130.4 15.7 130.4 15.6 130.2 15.8 130.3 15.5 130.4
1987-08-14 06:00:00 15.8 129.6 16.0 129.8 15.8 129.5 16.1 129.5 15.8 129.5
1987-08-14 12:00:00 16.0 128.8 16.3 128.7 16.1 128.6 16.2 128.7 16.0 128.8
1987-08-14 18:00:00 16.1 128.3 16.3 127.7 16.0 127.9 16.1 128.2 16.1 128.3
1987-08-15 00:00:00 16.2 127.8 16.2 127.6 16.1 127.5 16.0 127.7 16.2 127.8
1987-08-15 06:00:00 16.3 127.2 16.3 127.3 16.3 127.1 16.3 127.1 16.3 127.2
1987-08-15 12:00:00 16.5 126.6 16.4 126.5 16.5 126.6 16.5 126.5 16.5 126.6
1987-08-15 18:00:00 16.7 126.1 16.5 126.2 16.5 126.2 16.6 126.2 16.7 126.1
1987-08-16 00:00:00 16.9 125.7 16.5 126.0 16.6 125.9 16.7 126.0 16.9 125.7
1987-08-16 06:00:00 17.0 125.2 16.7 125.4 16.7 125.4 16.9 125.4 17.0 125.2
1987-08-16 12:00:00 16.9 124.7 17.0 124.7 16.8 124.7 17.0 124.8 16.9 124.7
1987-08-16 18:00:00 16.8 124.2 16.9 124.2 16.7 124.2 17.0 124.2 16.7 124.2
1987-08-17 00:00:00 16.5 123.8 16.4 123.8 16.4 123.8 16.4 123.8 16.5 123.8
1987-08-17 06:00:00 16.4 123.5 16.3 123.6 16.3 123.5 16.3 123.5 16.3 123.4
1987-08-17 12:00:00 16.2 123.0 16.3 123.1 16.3 123.1 16.2 123.0 16.2 123.0
1987-08-17 18:00:00 16.1 122.5 16.2 122.4 16.2 122.5 16.3 122.5 16.1 122.5
1987-08-18 00:00:00 16.0 121.8 16.0 121.3 16.1 121.4 16.1 121.5 16.0 121.8
1987-08-18 06:00:00 15.7 120.9 15.5 120.3 15.7 120.5 15.7 120.5 15.7 121.0
1987-08-18 12:00:00 15.4 120.1 15.3 119.4 15.4 119.7 15.4 119.4 15.4 120.1
1987-08-18 18:00:00 15.2 118.8 15.2 118.5 15.1 118.5 15.1 118.6 15.2 118.9
1987-08-19 00:00:00 15.2 117.8 15.2 117.6 15.2 117.6 15.2 117.7 15.2 117.8
jtwc_wp tokyo cma hko td9636
1987-08-19 06:00:00 15.4 117.0 15.3 116.7 15.4 116.8 15.4 117.0 15.4 117.0
1987-08-19 12:00:00 15.7 116.2 15.5 115.9 15.6 116.1 15.5 116.2 15.7 116.2
1987-08-19 18:00:00 15.8 115.1 15.6 115.0 15.6 115.1 15.6 115.2 15.8 115.2
1987-08-20 00:00:00 15.8 114.2 15.7 114.1 15.7 114.3 15.7 114.3 15.8 114.2
1987-08-20 06:00:00 15.8 113.4 15.8 113.5 15.8 113.7 15.8 113.7 15.8 113.4
1987-08-20 12:00:00 15.9 112.8 16.0 113.0 15.9 113.0 15.9 113.0 15.9 112.8
1987-08-20 18:00:00 16.2 112.3 16.2 112.5 16.0 112.5 15.9 112.5 16.1 112.2
1987-08-21 00:00:00 16.4 111.7 16.3 112.0 16.2 112.0 16.2 111.9 16.4 111.7
1987-08-21 06:00:00 16.8 111.1 16.6 111.3 16.6 111.2 16.7 111.2 16.9 111.1
1987-08-21 12:00:00 17.4 110.3 17.3 110.4 17.5 110.4 17.3 110.4 17.4 110.3
1987-08-21 18:00:00 18.1 109.1 17.9 109.1 18.3 109.2 18.0 109.4 18.0 109.1
1987-08-22 00:00:00 18.4 107.8 18.3 107.8 18.4 107.8 18.4 107.8 18.4 107.8
1987-08-22 06:00:00 18.5 106.6 18.6 106.8 18.5 106.8 18.4 106.8 18.6 106.7
1987-08-22 12:00:00 18.7 105.6 18.8 105.8 18.9 105.6 18.7 105.8 18.7 105.6
1987-08-22 18:00:00 18.8 104.7 19.0 104.5 19.0 104.5 19.0 104.5 19.0 104.7
1987-08-23 00:00:00 19.2 103.7 19.2 103.0 19.5 103.5 19.3 103.0 19.2 103.7
1987-08-23 06:00:00 19.3 102.5 19.7 101.4 19.5 102.0 19.2 102.5
1987-08-23 12:00:00 19.4 101.2 20.5 100.0 19.4 101.2
1987-08-23 18:00:00 20.1 100.0 21.5 98.5 20.0 100.0
1987-08-24 00:00:00 20.7 98.9 20.7 98.9
1987-08-24 06:00:00 21.3 98.0 21.5 97.9
1987-08-24 12:00:00 22.2 96.9 22.2 96.9

top of pageTrack Data:Intensity

jtwc_wp tokyo cma hko td9636
Date Wind Pres Wind Pres Wind Pres Wind Pres Wind Pres
1987-08-07 00:00:00 15. 15.
1987-08-07 06:00:00 15. 15.
1987-08-07 12:00:00 15. 15.
1987-08-07 18:00:00 15. 15.
1987-08-08 00:00:00 15. 15.
1987-08-08 06:00:00 20. 15.
1987-08-08 12:00:00 20. 20.
1987-08-08 18:00:00 20. 20.
1987-08-09 00:00:00 20. 20.
1987-08-09 06:00:00 20. 20.
1987-08-09 12:00:00 20. 20.
1987-08-09 18:00:00 20. 20.
1987-08-10 00:00:00 20. 20.
1987-08-10 06:00:00 20. 20.
1987-08-10 12:00:00 20. 20.
1987-08-10 18:00:00 20. 20.
1987-08-11 00:00:00 20. 20.
1987-08-11 06:00:00 20. 20.
1987-08-11 12:00:00 20. 20.
1987-08-11 18:00:00 20. 20.
1987-08-12 00:00:00 20. 20.
1987-08-12 06:00:00 25. 1008. 20.
1987-08-12 12:00:00 30. 1008. 30.
1987-08-12 18:00:00 35. 1004. 29. 1004. 30. 1000. 30.
1987-08-13 00:00:00 40. 1002. 39. 1000. 35. 998. 40.
jtwc_wp tokyo cma hko td9636
1987-08-13 06:00:00 45. 1000. 49. 996. 35. 998. 40.
1987-08-13 12:00:00 50. 1002. 49. 992. 40. 996. 50.
1987-08-13 18:00:00 55. 1002. 49. 990. 45. 994. 50.
1987-08-14 00:00:00 55. 1002. 49. 990. 45. 994. 55.
1987-08-14 06:00:00 55. 1002. 58. 985. 50. 992. 55.
1987-08-14 12:00:00 60. 40. 1000. 58. 985. 50. 992. 60.
1987-08-14 18:00:00 60. 40. 998. 58. 985. 55. 990. 60.
1987-08-15 00:00:00 65. 45. 994. 58. 985. 55. 990. 65.
1987-08-15 06:00:00 65. 50. 992. 58. 985. 55. 990. 65.
1987-08-15 12:00:00 65. 50. 990. 58. 985. 55. 990. 65.
1987-08-15 18:00:00 70. 55. 985. 58. 980. 60. 985. 65.
1987-08-16 00:00:00 65. 60. 980. 58. 980. 60. 985. 65.
1987-08-16 06:00:00 65. 60. 980. 58. 980. 60. 985. 65.
1987-08-16 12:00:00 70. 65. 975. 68. 975. 60. 985. 70.
1987-08-16 18:00:00 75. 70. 970. 68. 975. 65. 980. 70.
1987-08-17 00:00:00 80. 70. 965. 68. 970. 70. 975. 80.
1987-08-17 06:00:00 85. 70. 965. 78. 965. 75. 965. 80.
1987-08-17 12:00:00 80. 75. 960. 78. 965. 75. 965. 80.
1987-08-17 18:00:00 75. 70. 965. 78. 965. 75. 965. 80.
1987-08-18 00:00:00 70. 60. 980. 68. 970. 65. 975. 70.
1987-08-18 06:00:00 60. 55. 985. 58. 970. 60. 980. 70.
1987-08-18 12:00:00 50. 55. 985. 58. 970. 60. 980. 50.
1987-08-18 18:00:00 55. 55. 980. 68. 970. 60. 980. 50.
1987-08-19 00:00:00 55. 60. 975. 68. 970. 65. 975. 55.
jtwc_wp tokyo cma hko td9636
1987-08-19 06:00:00 55. 65. 970. 68. 970. 75. 965. 55.
1987-08-19 12:00:00 55. 65. 970. 68. 970. 85. 960. 55.
1987-08-19 18:00:00 55. 65. 970. 68. 970. 80. 965. 55.
1987-08-20 00:00:00 55. 70. 965. 68. 970. 75. 965. 55.
1987-08-20 06:00:00 60. 70. 965. 68. 970. 75. 965. 55.
1987-08-20 12:00:00 60. 70. 965. 68. 970. 75. 965. 60.
1987-08-20 18:00:00 65. 70. 965. 68. 970. 75. 965. 60.
1987-08-21 00:00:00 65. 70. 965. 68. 970. 75. 965. 65.
1987-08-21 06:00:00 70. 65. 970. 68. 970. 80. 960. 65.
1987-08-21 12:00:00 70. 65. 970. 68. 970. 80. 960. 70.
1987-08-21 18:00:00 65. 60. 975. 68. 970. 75. 965. 70.
1987-08-22 00:00:00 65. 60. 975. 58. 973. 75. 965. 65.
1987-08-22 06:00:00 65. 55. 975. 49. 975. 70. 970. 65.
1987-08-22 12:00:00 60. 50. 980. 39. 976. 70. 970. 60.
1987-08-22 18:00:00 50. 45. 985. 39. 980. 55. 980. 60.
1987-08-23 00:00:00 40. 40. 990. 29. 990. 35. 994. 40.
1987-08-23 06:00:00 35. 994. 30. 996. 40.
1987-08-23 12:00:00 30. 996. 30.
1987-08-23 18:00:00 25. 998. 30.
1987-08-24 00:00:00 25. 25.
1987-08-24 06:00:00 20. 25.
1987-08-24 12:00:00 20. 20.

top of page Links to source data

Source Source file Format
jtwc_wp bwp101987.txt ATCF
tokyo bst_all.txt:Line=36085:CARY:8711 JMA text table
cma CH1987BST.txt:Storm=12:Cary CMA text table
hko tc-besttrack-data-current.txt:Line=18746:CARY HKO Text table
td9636 cons_worldwide_trop_cyclone_18710101-19891231-003:Line=30917 TD 9636